sensor_id;sensor_type;location;lat;lon;timestamp;temperature;humidity
17364;DHT22;8799;43.594;13.526;2022-07-21T00:02:10;27.10;61.80
17364;DHT22;8799;43.594;13.526;2022-07-21T00:04:38;27.20;61.90
17364;DHT22;8799;43.594;13.526;2022-07-21T00:07:06;27.20;62.10
17364;DHT22;8799;43.594;13.526;2022-07-21T00:09:36;27.20;62.40
17364;DHT22;8799;43.594;13.526;2022-07-21T00:12:05;27.20;62.20
17364;DHT22;8799;43.594;13.526;2022-07-21T00:14:33;27.20;62.10
17364;DHT22;8799;43.594;13.526;2022-07-21T00:17:00;27.20;62.00
17364;DHT22;8799;43.594;13.526;2022-07-21T00:19:28;27.30;62.10
17364;DHT22;8799;43.594;13.526;2022-07-21T00:21:56;27.30;62.50
17364;DHT22;8799;43.594;13.526;2022-07-21T00:24:23;27.30;63.10
17364;DHT22;8799;43.594;13.526;2022-07-21T00:26:52;27.30;64.20
17364;DHT22;8799;43.594;13.526;2022-07-21T00:29:21;27.30;64.70
17364;DHT22;8799;43.594;13.526;2022-07-21T00:31:48;27.30;64.70
17364;DHT22;8799;43.594;13.526;2022-07-21T00:34:16;27.30;65.60
17364;DHT22;8799;43.594;13.526;2022-07-21T00:36:44;27.30;65.80
17364;DHT22;8799;43.594;13.526;2022-07-21T00:39:12;27.30;66.00
17364;DHT22;8799;43.594;13.526;2022-07-21T00:41:40;27.30;66.00
17364;DHT22;8799;43.594;13.526;2022-07-21T00:44:20;27.30;66.80
17364;DHT22;8799;43.594;13.526;2022-07-21T00:46:48;27.30;66.90
17364;DHT22;8799;43.594;13.526;2022-07-21T00:49:16;27.30;67.10
17364;DHT22;8799;43.594;13.526;2022-07-21T00:51:45;27.30;67.40
17364;DHT22;8799;43.594;13.526;2022-07-21T00:54:13;27.30;68.80
17364;DHT22;8799;43.594;13.526;2022-07-21T00:56:42;27.30;69.20
17364;DHT22;8799;43.594;13.526;2022-07-21T00:59:10;27.30;69.20
17364;DHT22;8799;43.594;13.526;2022-07-21T01:01:39;27.30;69.60
17364;DHT22;8799;43.594;13.526;2022-07-21T01:04:08;27.40;70.60
17364;DHT22;8799;43.594;13.526;2022-07-21T01:06:36;27.40;71.50
17364;DHT22;8799;43.594;13.526;2022-07-21T01:09:04;27.40;72.30
17364;DHT22;8799;43.594;13.526;2022-07-21T01:11:32;27.40;72.90
17364;DHT22;8799;43.594;13.526;2022-07-21T01:14:00;27.40;73.50
17364;DHT22;8799;43.594;13.526;2022-07-21T01:16:28;27.40;74.00
17364;DHT22;8799;43.594;13.526;2022-07-21T01:18:57;27.30;74.20
17364;DHT22;8799;43.594;13.526;2022-07-21T01:21:30;27.30;73.50
17364;DHT22;8799;43.594;13.526;2022-07-21T01:23:59;27.20;73.10
17364;DHT22;8799;43.594;13.526;2022-07-21T01:26:27;27.20;73.10
17364;DHT22;8799;43.594;13.526;2022-07-21T01:28:56;27.20;73.10
17364;DHT22;8799;43.594;13.526;2022-07-21T01:31:25;27.10;73.90
17364;DHT22;8799;43.594;13.526;2022-07-21T01:33:52;27.00;74.30
17364;DHT22;8799;43.594;13.526;2022-07-21T01:36:21;27.00;73.60
17364;DHT22;8799;43.594;13.526;2022-07-21T01:38:50;26.80;71.30
17364;DHT22;8799;43.594;13.526;2022-07-21T01:41:37;26.80;70.40
17364;DHT22;8799;43.594;13.526;2022-07-21T01:44:07;26.70;69.30
17364;DHT22;8799;43.594;13.526;2022-07-21T01:46:41;26.60;68.90
17364;DHT22;8799;43.594;13.526;2022-07-21T01:49:10;26.60;69.00
17364;DHT22;8799;43.594;13.526;2022-07-21T01:51:39;26.50;69.20
17364;DHT22;8799;43.594;13.526;2022-07-21T01:54:10;26.50;68.90
17364;DHT22;8799;43.594;13.526;2022-07-21T01:56:38;26.50;68.40
17364;DHT22;8799;43.594;13.526;2022-07-21T01:59:06;26.40;68.10
17364;DHT22;8799;43.594;13.526;2022-07-21T02:01:34;26.40;68.40
17364;DHT22;8799;43.594;13.526;2022-07-21T02:04:03;26.40;68.60
17364;DHT22;8799;43.594;13.526;2022-07-21T02:06:32;26.40;68.70
17364;DHT22;8799;43.594;13.526;2022-07-21T02:08:59;26.40;68.80
17364;DHT22;8799;43.594;13.526;2022-07-21T02:11:29;26.30;68.90
17364;DHT22;8799;43.594;13.526;2022-07-21T02:13:57;26.30;69.10
17364;DHT22;8799;43.594;13.526;2022-07-21T02:16:25;26.30;69.70
17364;DHT22;8799;43.594;13.526;2022-07-21T02:18:53;26.30;70.20
17364;DHT22;8799;43.594;13.526;2022-07-21T02:21:21;26.20;70.60
17364;DHT22;8799;43.594;13.526;2022-07-21T02:23:50;26.30;71.10
17364;DHT22;8799;43.594;13.526;2022-07-21T02:26:22;26.20;71.80
17364;DHT22;8799;43.594;13.526;2022-07-21T02:28:52;26.20;72.60
17364;DHT22;8799;43.594;13.526;2022-07-21T02:31:20;26.20;72.90
17364;DHT22;8799;43.594;13.526;2022-07-21T02:33:48;26.20;73.50
17364;DHT22;8799;43.594;13.526;2022-07-21T02:36:17;26.20;73.80
17364;DHT22;8799;43.594;13.526;2022-07-21T02:38:45;26.10;74.90
17364;DHT22;8799;43.594;13.526;2022-07-21T02:41:17;26.10;75.70
17364;DHT22;8799;43.594;13.526;2022-07-21T02:43:45;26.00;75.70
17364;DHT22;8799;43.594;13.526;2022-07-21T02:46:15;26.00;75.70
17364;DHT22;8799;43.594;13.526;2022-07-21T02:48:43;26.00;75.30
17364;DHT22;8799;43.594;13.526;2022-07-21T02:51:11;25.90;73.40
17364;DHT22;8799;43.594;13.526;2022-07-21T02:53:39;25.90;73.60
17364;DHT22;8799;43.594;13.526;2022-07-21T02:56:07;25.90;74.00
17364;DHT22;8799;43.594;13.526;2022-07-21T02:58:35;25.90;74.00
17364;DHT22;8799;43.594;13.526;2022-07-21T03:01:07;25.90;74.00
17364;DHT22;8799;43.594;13.526;2022-07-21T03:03:37;25.90;74.10
17364;DHT22;8799;43.594;13.526;2022-07-21T03:06:05;25.90;74.10
17364;DHT22;8799;43.594;13.526;2022-07-21T03:08:33;25.90;73.70
17364;DHT22;8799;43.594;13.526;2022-07-21T03:11:01;25.90;73.30
17364;DHT22;8799;43.594;13.526;2022-07-21T03:13:28;25.80;73.20
17364;DHT22;8799;43.594;13.526;2022-07-21T03:15:56;25.80;73.40
17364;DHT22;8799;43.594;13.526;2022-07-21T03:18:23;25.80;73.10
17364;DHT22;8799;43.594;13.526;2022-07-21T03:20:53;25.80;72.60
17364;DHT22;8799;43.594;13.526;2022-07-21T03:23:21;25.80;72.50
17364;DHT22;8799;43.594;13.526;2022-07-21T03:25:53;25.70;72.60
17364;DHT22;8799;43.594;13.526;2022-07-21T03:28:22;25.70;73.00
17364;DHT22;8799;43.594;13.526;2022-07-21T03:30:49;25.70;73.10
17364;DHT22;8799;43.594;13.526;2022-07-21T03:33:17;25.70;73.20
17364;DHT22;8799;43.594;13.526;2022-07-21T03:35:45;25.80;73.30
17364;DHT22;8799;43.594;13.526;2022-07-21T03:38:15;25.80;73.20
17364;DHT22;8799;43.594;13.526;2022-07-21T03:40:43;25.90;73.20
17364;DHT22;8799;43.594;13.526;2022-07-21T03:43:11;25.90;73.00
17364;DHT22;8799;43.594;13.526;2022-07-21T03:45:38;25.90;73.20
17364;DHT22;8799;43.594;13.526;2022-07-21T03:48:08;26.00;74.10
17364;DHT22;8799;43.594;13.526;2022-07-21T03:50:38;26.00;74.20
17364;DHT22;8799;43.594;13.526;2022-07-21T03:53:07;26.00;74.60
17364;DHT22;8799;43.594;13.526;2022-07-21T03:55:36;26.00;74.50
17364;DHT22;8799;43.594;13.526;2022-07-21T03:58:05;26.00;74.30
17364;DHT22;8799;43.594;13.526;2022-07-21T04:00:36;26.00;74.20
17364;DHT22;8799;43.594;13.526;2022-07-21T04:03:05;26.00;74.70
17364;DHT22;8799;43.594;13.526;2022-07-21T04:05:34;26.00;75.00
17364;DHT22;8799;43.594;13.526;2022-07-21T04:08:02;26.00;75.20
17364;DHT22;8799;43.594;13.526;2022-07-21T04:10:32;26.00;74.70
17364;DHT22;8799;43.594;13.526;2022-07-21T04:13:04;26.00;74.70
17364;DHT22;8799;43.594;13.526;2022-07-21T04:15:33;26.00;74.90
17364;DHT22;8799;43.594;13.526;2022-07-21T04:18:01;26.00;74.60
17364;DHT22;8799;43.594;13.526;2022-07-21T04:20:29;26.00;74.50
17364;DHT22;8799;43.594;13.526;2022-07-21T04:22:56;26.00;74.50
17364;DHT22;8799;43.594;13.526;2022-07-21T04:25:24;26.00;74.50
17364;DHT22;8799;43.594;13.526;2022-07-21T04:27:57;26.00;74.60
17364;DHT22;8799;43.594;13.526;2022-07-21T04:30:27;26.00;74.20
17364;DHT22;8799;43.594;13.526;2022-07-21T04:32:54;26.00;74.30
17364;DHT22;8799;43.594;13.526;2022-07-21T04:35:22;26.00;74.40
17364;DHT22;8799;43.594;13.526;2022-07-21T04:37:50;26.00;74.50
17364;DHT22;8799;43.594;13.526;2022-07-21T04:40:18;26.00;74.70
17364;DHT22;8799;43.594;13.526;2022-07-21T04:42:46;26.00;74.50
17364;DHT22;8799;43.594;13.526;2022-07-21T04:45:15;26.00;74.30
17364;DHT22;8799;43.594;13.526;2022-07-21T04:47:47;26.00;74.00
17364;DHT22;8799;43.594;13.526;2022-07-21T04:50:15;26.00;73.80
17364;DHT22;8799;43.594;13.526;2022-07-21T04:52:43;26.00;73.70
17364;DHT22;8799;43.594;13.526;2022-07-21T04:55:12;26.00;73.60
17364;DHT22;8799;43.594;13.526;2022-07-21T04:57:41;25.90;72.90
17364;DHT22;8799;43.594;13.526;2022-07-21T05:00:13;25.90;72.90
17364;DHT22;8799;43.594;13.526;2022-07-21T05:02:42;25.90;73.40
17364;DHT22;8799;43.594;13.526;2022-07-21T05:05:15;25.80;74.00
17364;DHT22;8799;43.594;13.526;2022-07-21T05:07:43;25.80;73.80
17364;DHT22;8799;43.594;13.526;2022-07-21T05:10:18;25.60;73.50
17364;DHT22;8799;43.594;13.526;2022-07-21T05:12:46;25.60;73.70
17364;DHT22;8799;43.594;13.526;2022-07-21T05:15:14;25.50;73.70
17364;DHT22;8799;43.594;13.526;2022-07-21T05:17:43;25.50;73.90
17364;DHT22;8799;43.594;13.526;2022-07-21T05:20:13;25.50;74.30
17364;DHT22;8799;43.594;13.526;2022-07-21T05:22:41;25.50;74.70
17364;DHT22;8799;43.594;13.526;2022-07-21T05:25:08;25.50;75.00
17364;DHT22;8799;43.594;13.526;2022-07-21T05:27:37;25.50;75.40
17364;DHT22;8799;43.594;13.526;2022-07-21T05:30:05;25.50;75.20
17364;DHT22;8799;43.594;13.526;2022-07-21T05:32:34;25.50;75.20
17364;DHT22;8799;43.594;13.526;2022-07-21T05:35:03;25.50;75.40
17364;DHT22;8799;43.594;13.526;2022-07-21T05:37:38;25.50;75.30
17364;DHT22;8799;43.594;13.526;2022-07-21T05:40:07;25.50;75.20
17364;DHT22;8799;43.594;13.526;2022-07-21T05:42:35;25.50;74.80
17364;DHT22;8799;43.594;13.526;2022-07-21T05:45:04;25.50;74.70
17364;DHT22;8799;43.594;13.526;2022-07-21T05:47:31;25.50;74.70
17364;DHT22;8799;43.594;13.526;2022-07-21T05:49:59;25.50;74.70
17364;DHT22;8799;43.594;13.526;2022-07-21T05:52:27;25.50;74.70
17364;DHT22;8799;43.594;13.526;2022-07-21T05:54:56;25.50;74.70
17364;DHT22;8799;43.594;13.526;2022-07-21T05:57:25;25.50;74.80
17364;DHT22;8799;43.594;13.526;2022-07-21T05:59:53;25.50;75.20
17364;DHT22;8799;43.594;13.526;2022-07-21T06:02:21;25.50;75.50
17364;DHT22;8799;43.594;13.526;2022-07-21T06:04:49;25.50;75.90
17364;DHT22;8799;43.594;13.526;2022-07-21T06:07:17;25.60;76.20
17364;DHT22;8799;43.594;13.526;2022-07-21T06:09:45;25.60;76.20
17364;DHT22;8799;43.594;13.526;2022-07-21T06:12:14;25.60;76.30
17364;DHT22;8799;43.594;13.526;2022-07-21T06:14:43;25.60;76.40
17364;DHT22;8799;43.594;13.526;2022-07-21T06:17:11;25.60;76.50
17364;DHT22;8799;43.594;13.526;2022-07-21T06:19:39;25.70;76.40
17364;DHT22;8799;43.594;13.526;2022-07-21T06:22:07;25.70;75.90
17364;DHT22;8799;43.594;13.526;2022-07-21T06:24:35;25.70;75.60
17364;DHT22;8799;43.594;13.526;2022-07-21T06:27:04;25.80;75.10
17364;DHT22;8799;43.594;13.526;2022-07-21T06:29:37;25.80;73.70
17364;DHT22;8799;43.594;13.526;2022-07-21T06:32:05;25.90;72.70
17364;DHT22;8799;43.594;13.526;2022-07-21T06:34:33;25.90;71.70
17364;DHT22;8799;43.594;13.526;2022-07-21T06:37:01;25.90;71.70
17364;DHT22;8799;43.594;13.526;2022-07-21T06:39:28;25.90;70.60
17364;DHT22;8799;43.594;13.526;2022-07-21T06:41:56;25.90;70.50
17364;DHT22;8799;43.594;13.526;2022-07-21T06:44:24;26.00;70.80
17364;DHT22;8799;43.594;13.526;2022-07-21T06:46:54;26.00;70.70
17364;DHT22;8799;43.594;13.526;2022-07-21T06:49:22;26.00;70.30
17364;DHT22;8799;43.594;13.526;2022-07-21T06:51:50;26.00;70.20
17364;DHT22;8799;43.594;13.526;2022-07-21T06:54:18;26.10;70.00
17364;DHT22;8799;43.594;13.526;2022-07-21T06:56:46;26.10;69.20
17364;DHT22;8799;43.594;13.526;2022-07-21T06:59:14;26.10;68.60
17364;DHT22;8799;43.594;13.526;2022-07-21T07:01:41;26.10;68.60
17364;DHT22;8799;43.594;13.526;2022-07-21T07:04:11;26.10;68.60
17364;DHT22;8799;43.594;13.526;2022-07-21T07:06:38;26.20;67.80
17364;DHT22;8799;43.594;13.526;2022-07-21T07:09:06;26.20;67.20
17364;DHT22;8799;43.594;13.526;2022-07-21T07:11:34;26.30;67.20
17364;DHT22;8799;43.594;13.526;2022-07-21T07:14:01;26.30;66.50
17364;DHT22;8799;43.594;13.526;2022-07-21T07:16:29;26.30;66.40
17364;DHT22;8799;43.594;13.526;2022-07-21T07:18:57;26.30;66.50
17364;DHT22;8799;43.594;13.526;2022-07-21T07:21:27;26.30;66.40
17364;DHT22;8799;43.594;13.526;2022-07-21T07:23:54;26.40;65.60
17364;DHT22;8799;43.594;13.526;2022-07-21T07:26:22;26.40;65.70
17364;DHT22;8799;43.594;13.526;2022-07-21T07:28:50;26.40;65.00
17364;DHT22;8799;43.594;13.526;2022-07-21T07:31:17;26.50;65.00
17364;DHT22;8799;43.594;13.526;2022-07-21T07:33:45;26.50;65.50
17364;DHT22;8799;43.594;13.526;2022-07-21T07:36:13;26.50;65.40
17364;DHT22;8799;43.594;13.526;2022-07-21T07:38:42;26.50;64.90
17364;DHT22;8799;43.594;13.526;2022-07-21T07:41:10;26.50;65.10
17364;DHT22;8799;43.594;13.526;2022-07-21T07:43:43;26.50;65.30
17364;DHT22;8799;43.594;13.526;2022-07-21T07:46:10;26.60;65.20
17364;DHT22;8799;43.594;13.526;2022-07-21T07:48:38;26.50;65.50
17364;DHT22;8799;43.594;13.526;2022-07-21T07:51:06;26.60;65.70
17364;DHT22;8799;43.594;13.526;2022-07-21T07:53:34;26.50;66.30
17364;DHT22;8799;43.594;13.526;2022-07-21T07:56:04;26.50;67.20
17364;DHT22;8799;43.594;13.526;2022-07-21T07:58:31;26.60;68.10
17364;DHT22;8799;43.594;13.526;2022-07-21T08:00:59;26.60;69.20
17364;DHT22;8799;43.594;13.526;2022-07-21T08:03:27;26.60;70.20
17364;DHT22;8799;43.594;13.526;2022-07-21T08:05:56;26.60;71.00
17364;DHT22;8799;43.594;13.526;2022-07-21T08:08:25;26.60;71.80
17364;DHT22;8799;43.594;13.526;2022-07-21T08:10:52;26.60;72.40
17364;DHT22;8799;43.594;13.526;2022-07-21T08:13:22;26.70;73.10
17364;DHT22;8799;43.594;13.526;2022-07-21T08:15:50;26.70;74.40
17364;DHT22;8799;43.594;13.526;2022-07-21T08:18:18;26.70;75.20
17364;DHT22;8799;43.594;13.526;2022-07-21T08:20:47;26.70;75.10
17364;DHT22;8799;43.594;13.526;2022-07-21T08:23:15;26.70;75.40
17364;DHT22;8799;43.594;13.526;2022-07-21T08:25:43;26.70;75.50
17364;DHT22;8799;43.594;13.526;2022-07-21T08:28:11;26.70;76.20
17364;DHT22;8799;43.594;13.526;2022-07-21T08:30:41;26.70;76.60
17364;DHT22;8799;43.594;13.526;2022-07-21T08:33:08;26.80;77.10
17364;DHT22;8799;43.594;13.526;2022-07-21T08:35:36;26.80;77.50
17364;DHT22;8799;43.594;13.526;2022-07-21T08:38:06;26.80;78.50
17364;DHT22;8799;43.594;13.526;2022-07-21T08:40:35;26.80;78.20
17364;DHT22;8799;43.594;13.526;2022-07-21T08:43:04;26.80;78.10
17364;DHT22;8799;43.594;13.526;2022-07-21T08:45:32;26.80;78.00
17364;DHT22;8799;43.594;13.526;2022-07-21T08:48:01;26.80;78.50
17364;DHT22;8799;43.594;13.526;2022-07-21T08:50:31;26.80;78.60
17364;DHT22;8799;43.594;13.526;2022-07-21T08:52:59;26.90;79.00
17364;DHT22;8799;43.594;13.526;2022-07-21T08:55:32;26.90;79.30
17364;DHT22;8799;43.594;13.526;2022-07-21T08:58:01;26.90;79.80
17364;DHT22;8799;43.594;13.526;2022-07-21T09:00:30;26.90;79.60
17364;DHT22;8799;43.594;13.526;2022-07-21T09:03:13;27.00;80.10
17364;DHT22;8799;43.594;13.526;2022-07-21T09:05:42;27.00;79.90
17364;DHT22;8799;43.594;13.526;2022-07-21T09:08:10;27.00;80.00
17364;DHT22;8799;43.594;13.526;2022-07-21T09:10:38;27.00;79.80
17364;DHT22;8799;43.594;13.526;2022-07-21T09:13:06;27.00;79.50
17364;DHT22;8799;43.594;13.526;2022-07-21T09:15:34;27.00;79.30
17364;DHT22;8799;43.594;13.526;2022-07-21T09:18:16;27.00;79.20
17364;DHT22;8799;43.594;13.526;2022-07-21T09:20:47;27.00;78.90
17364;DHT22;8799;43.594;13.526;2022-07-21T09:23:17;27.00;78.60
17364;DHT22;8799;43.594;13.526;2022-07-21T09:25:46;27.00;78.50
17364;DHT22;8799;43.594;13.526;2022-07-21T09:28:18;27.00;78.30
17364;DHT22;8799;43.594;13.526;2022-07-21T09:30:52;27.00;78.50
17364;DHT22;8799;43.594;13.526;2022-07-21T09:33:24;27.00;78.40
17364;DHT22;8799;43.594;13.526;2022-07-21T09:35:58;27.00;78.50
17364;DHT22;8799;43.594;13.526;2022-07-21T09:38:27;27.00;78.50
17364;DHT22;8799;43.594;13.526;2022-07-21T09:40:56;27.10;78.70
17364;DHT22;8799;43.594;13.526;2022-07-21T09:43:32;27.00;78.80
17364;DHT22;8799;43.594;13.526;2022-07-21T09:46:02;27.10;78.80
17364;DHT22;8799;43.594;13.526;2022-07-21T09:48:37;27.10;79.10
17364;DHT22;8799;43.594;13.526;2022-07-21T09:51:26;27.10;79.00
17364;DHT22;8799;43.594;13.526;2022-07-21T09:53:56;27.10;79.00
17364;DHT22;8799;43.594;13.526;2022-07-21T09:56:27;27.20;79.30
17364;DHT22;8799;43.594;13.526;2022-07-21T09:58:55;27.10;79.30
17364;DHT22;8799;43.594;13.526;2022-07-21T10:01:24;27.20;79.60
17364;DHT22;8799;43.594;13.526;2022-07-21T10:03:54;27.30;79.90
17364;DHT22;8799;43.594;13.526;2022-07-21T10:06:24;27.20;79.90
17364;DHT22;8799;43.594;13.526;2022-07-21T10:08:53;27.30;80.10
17364;DHT22;8799;43.594;13.526;2022-07-21T10:11:22;27.20;80.30
17364;DHT22;8799;43.594;13.526;2022-07-21T10:13:50;27.30;80.20
17364;DHT22;8799;43.594;13.526;2022-07-21T10:16:17;27.30;80.20
17364;DHT22;8799;43.594;13.526;2022-07-21T10:18:55;27.30;80.40
17364;DHT22;8799;43.594;13.526;2022-07-21T10:21:32;27.30;80.60
17364;DHT22;8799;43.594;13.526;2022-07-21T10:24:02;27.30;81.20
17364;DHT22;8799;43.594;13.526;2022-07-21T10:26:30;27.30;81.30
17364;DHT22;8799;43.594;13.526;2022-07-21T10:28:58;27.30;81.80
17364;DHT22;8799;43.594;13.526;2022-07-21T10:31:26;27.30;82.20
17364;DHT22;8799;43.594;13.526;2022-07-21T10:33:58;27.30;82.70
17364;DHT22;8799;43.594;13.526;2022-07-21T10:36:43;27.30;82.80
17364;DHT22;8799;43.594;13.526;2022-07-21T10:39:19;27.30;82.20
17364;DHT22;8799;43.594;13.526;2022-07-21T10:41:50;27.30;81.90
17364;DHT22;8799;43.594;13.526;2022-07-21T10:44:47;27.40;81.40
17364;DHT22;8799;43.594;13.526;2022-07-21T10:47:17;27.40;81.20
17364;DHT22;8799;43.594;13.526;2022-07-21T10:49:53;27.40;80.90
17364;DHT22;8799;43.594;13.526;2022-07-21T10:52:58;27.40;80.60
17364;DHT22;8799;43.594;13.526;2022-07-21T10:55:28;27.40;80.20
17364;DHT22;8799;43.594;13.526;2022-07-21T10:58:15;27.40;79.70
17364;DHT22;8799;43.594;13.526;2022-07-21T11:00:48;27.40;79.30
17364;DHT22;8799;43.594;13.526;2022-07-21T11:03:21;27.40;79.00
17364;DHT22;8799;43.594;13.526;2022-07-21T11:06:16;27.40;78.80
17364;DHT22;8799;43.594;13.526;2022-07-21T11:08:45;27.40;78.50
17364;DHT22;8799;43.594;13.526;2022-07-21T11:11:15;27.40;78.10
17364;DHT22;8799;43.594;13.526;2022-07-21T11:14:01;27.40;77.80
17364;DHT22;8799;43.594;13.526;2022-07-21T11:19:38;27.50;77.50
17364;DHT22;8799;43.594;13.526;2022-07-21T11:22:11;27.50;77.30
17364;DHT22;8799;43.594;13.526;2022-07-21T11:24:39;27.50;77.20
17364;DHT22;8799;43.594;13.526;2022-07-21T11:27:09;27.50;77.10
17364;DHT22;8799;43.594;13.526;2022-07-21T11:29:38;27.50;77.30
17364;DHT22;8799;43.594;13.526;2022-07-21T11:32:07;27.50;77.80
17364;DHT22;8799;43.594;13.526;2022-07-21T11:34:45;27.50;78.80
17364;DHT22;8799;43.594;13.526;2022-07-21T11:37:16;27.50;79.80
17364;DHT22;8799;43.594;13.526;2022-07-21T11:39:44;27.50;80.10
17364;DHT22;8799;43.594;13.526;2022-07-21T11:42:13;27.50;80.60
17364;DHT22;8799;43.594;13.526;2022-07-21T11:44:42;27.50;80.40
17364;DHT22;8799;43.594;13.526;2022-07-21T11:47:12;27.50;80.20
17364;DHT22;8799;43.594;13.526;2022-07-21T11:49:42;27.50;80.00
17364;DHT22;8799;43.594;13.526;2022-07-21T11:52:11;27.50;79.90
17364;DHT22;8799;43.594;13.526;2022-07-21T11:54:45;27.50;80.00
17364;DHT22;8799;43.594;13.526;2022-07-21T11:57:18;27.50;80.20
17364;DHT22;8799;43.594;13.526;2022-07-21T11:59:47;27.60;80.50
17364;DHT22;8799;43.594;13.526;2022-07-21T12:02:18;27.60;80.50
17364;DHT22;8799;43.594;13.526;2022-07-21T12:04:47;27.60;80.70
17364;DHT22;8799;43.594;13.526;2022-07-21T12:07:26;27.60;80.60
17364;DHT22;8799;43.594;13.526;2022-07-21T12:09:57;27.60;80.50
17364;DHT22;8799;43.594;13.526;2022-07-21T12:12:30;27.60;80.50
17364;DHT22;8799;43.594;13.526;2022-07-21T12:15:09;27.60;80.30
17364;DHT22;8799;43.594;13.526;2022-07-21T12:17:39;27.60;80.10
17364;DHT22;8799;43.594;13.526;2022-07-21T12:20:08;27.60;79.80
17364;DHT22;8799;43.594;13.526;2022-07-21T12:22:38;27.60;79.40
17364;DHT22;8799;43.594;13.526;2022-07-21T12:25:11;27.60;79.10
17364;DHT22;8799;43.594;13.526;2022-07-21T12:27:40;27.70;78.70
17364;DHT22;8799;43.594;13.526;2022-07-21T12:30:28;27.70;78.40
17364;DHT22;8799;43.594;13.526;2022-07-21T12:33:02;27.70;78.40
17364;DHT22;8799;43.594;13.526;2022-07-21T12:35:30;27.70;78.50
17364;DHT22;8799;43.594;13.526;2022-07-21T12:38:04;27.70;78.70
17364;DHT22;8799;43.594;13.526;2022-07-21T12:40:34;27.70;79.20
17364;DHT22;8799;43.594;13.526;2022-07-21T12:43:11;27.70;79.70
17364;DHT22;8799;43.594;13.526;2022-07-21T12:45:51;27.70;80.50
17364;DHT22;8799;43.594;13.526;2022-07-21T12:48:20;27.70;81.50
17364;DHT22;8799;43.594;13.526;2022-07-21T12:51:01;27.80;82.00
17364;DHT22;8799;43.594;13.526;2022-07-21T12:53:30;27.70;82.80
17364;DHT22;8799;43.594;13.526;2022-07-21T12:56:00;27.80;83.90
17364;DHT22;8799;43.594;13.526;2022-07-21T12:58:28;27.80;85.30
17364;DHT22;8799;43.594;13.526;2022-07-21T13:00:56;27.80;85.20
17364;DHT22;8799;43.594;13.526;2022-07-21T13:03:26;27.80;85.90
17364;DHT22;8799;43.594;13.526;2022-07-21T13:05:54;27.90;86.30
17364;DHT22;8799;43.594;13.526;2022-07-21T13:08:22;27.90;86.90
17364;DHT22;8799;43.594;13.526;2022-07-21T13:10:50;27.90;87.20
17364;DHT22;8799;43.594;13.526;2022-07-21T13:13:19;27.90;86.90
17364;DHT22;8799;43.594;13.526;2022-07-21T13:15:47;27.90;87.60
17364;DHT22;8799;43.594;13.526;2022-07-21T13:18:15;27.90;87.50
17364;DHT22;8799;43.594;13.526;2022-07-21T13:20:43;27.90;87.70
17364;DHT22;8799;43.594;13.526;2022-07-21T13:23:10;27.90;87.90
17364;DHT22;8799;43.594;13.526;2022-07-21T13:25:38;27.90;88.50
17364;DHT22;8799;43.594;13.526;2022-07-21T13:28:06;27.90;88.80
17364;DHT22;8799;43.594;13.526;2022-07-21T13:30:35;27.90;88.60
17364;DHT22;8799;43.594;13.526;2022-07-21T13:33:03;27.90;88.10
17364;DHT22;8799;43.594;13.526;2022-07-21T13:35:31;27.90;88.30
17364;DHT22;8799;43.594;13.526;2022-07-21T13:38:03;27.90;88.70
17364;DHT22;8799;43.594;13.526;2022-07-21T13:40:30;27.90;88.80
17364;DHT22;8799;43.594;13.526;2022-07-21T13:42:58;27.90;87.90
17364;DHT22;8799;43.594;13.526;2022-07-21T13:45:26;27.90;87.40
17364;DHT22;8799;43.594;13.526;2022-07-21T13:47:56;27.90;87.40
17364;DHT22;8799;43.594;13.526;2022-07-21T13:50:25;28.00;88.40
17364;DHT22;8799;43.594;13.526;2022-07-21T13:52:52;27.90;87.70
17364;DHT22;8799;43.594;13.526;2022-07-21T13:55:20;28.00;88.50
17364;DHT22;8799;43.594;13.526;2022-07-21T13:57:48;28.00;89.10
17364;DHT22;8799;43.594;13.526;2022-07-21T14:00:16;28.00;90.30
17364;DHT22;8799;43.594;13.526;2022-07-21T14:02:44;28.00;91.10
17364;DHT22;8799;43.594;13.526;2022-07-21T14:05:13;28.00;92.30
17364;DHT22;8799;43.594;13.526;2022-07-21T14:07:41;28.00;91.50
17364;DHT22;8799;43.594;13.526;2022-07-21T14:10:09;28.00;91.10
17364;DHT22;8799;43.594;13.526;2022-07-21T14:12:37;28.00;90.50
17364;DHT22;8799;43.594;13.526;2022-07-21T14:15:05;28.00;90.50
17364;DHT22;8799;43.594;13.526;2022-07-21T14:17:33;28.00;91.20
17364;DHT22;8799;43.594;13.526;2022-07-21T14:20:00;28.00;90.50
17364;DHT22;8799;43.594;13.526;2022-07-21T14:22:30;28.00;90.60
17364;DHT22;8799;43.594;13.526;2022-07-21T14:24:58;28.00;90.00
17364;DHT22;8799;43.594;13.526;2022-07-21T14:27:42;28.00;90.10
17364;DHT22;8799;43.594;13.526;2022-07-21T14:30:10;28.00;90.20
17364;DHT22;8799;43.594;13.526;2022-07-21T14:32:38;28.00;89.50
17364;DHT22;8799;43.594;13.526;2022-07-21T14:35:07;28.00;88.70
17364;DHT22;8799;43.594;13.526;2022-07-21T14:37:36;28.00;87.20
17364;DHT22;8799;43.594;13.526;2022-07-21T14:40:05;28.00;86.60
17364;DHT22;8799;43.594;13.526;2022-07-21T14:42:34;28.00;86.00
17364;DHT22;8799;43.594;13.526;2022-07-21T14:45:01;28.00;85.60
17364;DHT22;8799;43.594;13.526;2022-07-21T14:47:29;28.00;85.40
17364;DHT22;8799;43.594;13.526;2022-07-21T14:50:01;28.00;84.80
17364;DHT22;8799;43.594;13.526;2022-07-21T14:52:30;27.90;82.40
17364;DHT22;8799;43.594;13.526;2022-07-21T14:54:59;28.00;80.90
17364;DHT22;8799;43.594;13.526;2022-07-21T14:57:27;28.00;80.90
17364;DHT22;8799;43.594;13.526;2022-07-21T14:59:55;28.00;80.70
17364;DHT22;8799;43.594;13.526;2022-07-21T15:02:27;28.00;80.60
17364;DHT22;8799;43.594;13.526;2022-07-21T15:04:55;28.00;80.00
17364;DHT22;8799;43.594;13.526;2022-07-21T15:07:23;28.00;79.10
17364;DHT22;8799;43.594;13.526;2022-07-21T15:09:51;28.00;78.80
17364;DHT22;8799;43.594;13.526;2022-07-21T15:12:22;28.00;78.10
17364;DHT22;8799;43.594;13.526;2022-07-21T15:14:50;28.00;77.40
17364;DHT22;8799;43.594;13.526;2022-07-21T15:17:17;28.00;77.10
17364;DHT22;8799;43.594;13.526;2022-07-21T15:19:45;28.00;76.10
17364;DHT22;8799;43.594;13.526;2022-07-21T15:22:13;28.00;75.80
17364;DHT22;8799;43.594;13.526;2022-07-21T15:24:41;28.00;75.90
17364;DHT22;8799;43.594;13.526;2022-07-21T15:27:10;28.00;74.10
17364;DHT22;8799;43.594;13.526;2022-07-21T15:29:39;28.00;72.40
17364;DHT22;8799;43.594;13.526;2022-07-21T15:32:06;28.00;71.10
17364;DHT22;8799;43.594;13.526;2022-07-21T15:34:34;28.00;70.10
17364;DHT22;8799;43.594;13.526;2022-07-21T15:37:02;28.00;69.30
17364;DHT22;8799;43.594;13.526;2022-07-21T15:39:30;28.10;68.20
17364;DHT22;8799;43.594;13.526;2022-07-21T15:41:57;28.00;67.50
17364;DHT22;8799;43.594;13.526;2022-07-21T15:44:25;28.10;66.80
17364;DHT22;8799;43.594;13.526;2022-07-21T15:46:54;28.10;66.10
17364;DHT22;8799;43.594;13.526;2022-07-21T15:49:22;28.10;65.70